Time;durP1;ratioP1;P1;durP2;ratioP2;P2;SDS_P1;SDS_P2;PMS_P1;PMS_P2;Temp;Humidity;BMP_temperature;BMP_pressure;BME280_temperature;BME280_humidity;BME280_pressure;Samples;Min_cycle;Max_cycle;Signal;HPM_P1;HPM_P2
2023/03/20 04:00:30;;;;;;;8.70;8.07;;;10.00;99.90;;;;;;5990720;23;20271;31
2023/03/20 04:02:57;;;;;;;8.07;7.60;;;10.00;99.90;;;;;;4895484;29;20270;-73
2023/03/20 04:05:26;;;;;;;8.57;7.80;;;10.00;99.90;;;;;;4928466;29;20279;-75
2023/03/20 04:07:55;;;;;;;8.93;8.50;;;10.00;99.90;;;;;;4899337;29;20187;-74
2023/03/20 04:10:21;;;;;;;9.07;8.57;;;10.00;99.90;;;;;;4907850;29;20192;-74
2023/03/20 04:12:47;;;;;;;9.00;8.53;;;10.00;99.90;;;;;;4919413;23;20228;-74
2023/03/20 04:15:15;;;;;;;9.67;9.07;;;10.00;99.90;;;;;;4898030;29;20184;-74
2023/03/20 04:17:41;;;;;;;11.63;10.93;;;10.00;99.90;;;;;;4909594;29;20220;-73
2023/03/20 04:20:08;;;;;;;10.57;10.00;;;10.00;99.90;;;;;;4911805;29;20226;-73
2023/03/20 04:22:34;;;;;;;8.60;8.00;;;10.10;99.90;;;;;;4909254;29;20187;-74
2023/03/20 04:25:02;;;;;;;8.83;8.13;;;10.00;99.90;;;;;;4897932;29;20196;-74
2023/03/20 04:27:28;;;;;;;9.33;8.77;;;10.00;99.90;;;;;;4896802;29;20270;-74
2023/03/20 04:29:54;;;;;;;9.03;8.53;;;10.10;99.90;;;;;;4896431;29;20194;-74
2023/03/20 04:32:20;;;;;;;9.83;9.23;;;10.00;99.90;;;;;;4897564;29;20688;-74
2023/03/20 04:34:46;;;;;;;8.87;8.37;;;10.10;99.90;;;;;;4897559;29;20208;-74
2023/03/20 04:37:13;;;;;;;9.30;8.40;;;10.00;99.90;;;;;;4896971;29;20188;-74
2023/03/20 04:39:41;;;;;;;9.10;8.60;;;10.10;99.90;;;;;;4902115;29;20279;-74
2023/03/20 04:42:07;;;;;;;10.60;10.10;;;10.00;99.90;;;;;;4914943;29;20671;-74
2023/03/20 04:44:33;;;;;;;11.00;10.40;;;10.00;99.90;;;;;;4897623;29;20210;-74
2023/03/20 04:46:59;;;;;;;12.17;11.27;;;10.00;99.90;;;;;;4896362;29;20653;-74
2023/03/20 04:49:25;;;;;;;11.13;10.53;;;10.00;99.90;;;;;;4894780;29;20191;-74
2023/03/20 04:51:52;;;;;;;10.70;10.00;;;10.00;99.90;;;;;;4894963;29;20188;-74
2023/03/20 04:54:18;;;;;;;9.90;9.40;;;10.00;99.90;;;;;;4895112;29;20696;-74
2023/03/20 04:56:44;;;;;;;11.37;10.53;;;10.00;99.90;;;;;;4896816;29;20188;-74
2023/03/20 04:59:10;;;;;;;12.37;11.53;;;10.00;99.90;;;;;;4897467;29;20239;-74
2023/03/20 05:01:36;;;;;;;11.57;10.80;;;10.00;99.90;;;;;;4892189;29;20223;-73
2023/03/20 05:04:02;;;;;;;11.37;10.50;;;10.00;99.90;;;;;;4884270;29;20208;-75
2023/03/20 05:06:32;;;;;;;10.37;9.77;;;10.00;99.90;;;;;;4893945;29;20185;-74
2023/03/20 05:08:59;;;;;;;10.00;9.40;;;10.00;99.90;;;;;;4901972;29;20667;-75
2023/03/20 05:11:26;;;;;;;10.47;9.77;;;10.00;99.90;;;;;;4916798;29;20569;-74
2023/03/20 05:13:53;;;;;;;11.33;10.63;;;10.00;99.90;;;;;;4915539;29;20227;-75
2023/03/20 05:16:18;;;;;;;10.43;9.83;;;10.00;99.90;;;;;;4915911;29;20570;-75
2023/03/20 05:18:44;;;;;;;10.73;10.13;;;10.00;99.90;;;;;;4915946;29;20183;-74
2023/03/20 05:21:10;;;;;;;10.87;10.27;;;10.00;99.90;;;;;;4903310;29;20180;-75
2023/03/20 05:23:37;;;;;;;11.03;10.07;;;10.00;99.90;;;;;;4896192;29;20229;-75
2023/03/20 05:26:03;;;;;;;9.63;9.07;;;10.00;99.90;;;;;;4897224;29;20235;-75
2023/03/20 05:28:29;;;;;;;10.73;9.93;;;10.00;99.90;;;;;;4895642;29;20184;-68
2023/03/20 05:30:54;;;;;;;10.43;9.73;;;10.00;99.90;;;;;;4897143;29;20673;-67
2023/03/20 05:33:22;;;;;;;9.13;8.63;;;10.00;99.90;;;;;;4896601;29;20846;-66
2023/03/20 05:35:47;;;;;;;9.40;8.80;;;10.00;99.90;;;;;;4897057;29;20183;-66
2023/03/20 05:38:13;;;;;;;9.70;9.10;;;10.00;99.90;;;;;;4896796;29;20197;-66
2023/03/20 05:40:40;;;;;;;7.83;7.33;;;10.00;99.90;;;;;;4895679;29;20218;-66
2023/03/20 05:43:07;;;;;;;7.80;7.40;;;9.90;99.90;;;;;;4896575;29;20204;-66
2023/03/20 05:45:33;;;;;;;7.93;7.63;;;9.90;99.90;;;;;;4896737;29;20184;-66
2023/03/20 05:47:59;;;;;;;9.20;8.60;;;9.90;99.90;;;;;;4896454;29;20191;-68
2023/03/20 05:50:25;;;;;;;9.40;9.00;;;9.90;99.90;;;;;;4896090;29;20195;-66
2023/03/20 05:52:50;;;;;;;10.60;9.07;;;9.90;99.90;;;;;;4896425;29;20214;-67
2023/03/20 05:55:17;;;;;;;9.27;8.70;;;9.90;99.90;;;;;;4896480;29;20179;-66
2023/03/20 05:57:43;;;;;;;5.70;5.20;;;9.90;99.90;;;;;;4908445;29;20189;-66
2023/03/20 06:00:09;;;;;;;5.50;5.00;;;10.00;99.90;;;;;;4915005;29;20687;-66
2023/03/20 06:02:36;;;;;;;5.13;4.90;;;10.00;99.90;;;;;;4915035;29;20238;-66
2023/03/20 06:05:02;;;;;;;8.83;5.50;;;10.00;99.90;;;;;;4915441;29;20186;-66
2023/03/20 06:07:28;;;;;;;7.90;7.30;;;10.00;99.90;;;;;;4915385;29;20199;-66
2023/03/20 06:09:54;;;;;;;8.87;5.40;;;10.10;99.90;;;;;;4914920;29;20183;-67
2023/03/20 06:12:21;;;;;;;6.50;5.93;;;10.10;99.90;;;;;;4915149;29;20183;-66
2023/03/20 06:14:47;;;;;;;14.83;14.13;;;10.10;99.90;;;;;;4914802;29;20214;-66
2023/03/20 06:17:13;;;;;;;19.07;18.17;;;10.20;99.90;;;;;;4914759;29;20715;-66
2023/03/20 06:19:39;;;;;;;20.33;19.27;;;10.20;99.90;;;;;;4914536;29;20302;-66
2023/03/20 06:22:05;;;;;;;17.83;16.60;;;10.30;99.90;;;;;;4915102;29;20269;-66
2023/03/20 06:24:31;;;;;;;8.70;8.03;;;10.30;99.90;;;;;;4914627;29;20203;-66
2023/03/20 06:26:58;;;;;;;9.57;6.00;;;10.40;99.90;;;;;;4914929;29;20710;-66
2023/03/20 06:29:24;;;;;;;5.70;5.40;;;10.40;99.90;;;;;;4913230;29;20183;-66
2023/03/20 06:31:50;;;;;;;5.47;5.17;;;10.40;99.90;;;;;;4914764;29;20193;-66
2023/03/20 06:34:16;;;;;;;7.20;6.70;;;10.50;99.90;;;;;;4914670;29;20203;-66
2023/03/20 06:36:42;;;;;;;14.23;13.53;;;10.50;99.90;;;;;;4914998;29;20234;-66
2023/03/20 06:39:08;;;;;;;21.03;19.93;;;10.60;99.90;;;;;;4914329;29;20211;-69
2023/03/20 06:41:33;;;;;;;21.00;19.93;;;10.60;99.90;;;;;;4932284;29;20183;-69
2023/03/20 06:43:59;;;;;;;45.87;43.37;;;10.70;99.90;;;;;;4925157;29;20210;-69
2023/03/20 06:46:25;;;;;;;73.17;69.43;;;10.70;99.90;;;;;;4915730;29;20187;-70
2023/03/20 06:48:51;;;;;;;83.50;79.40;;;10.80;99.90;;;;;;4913223;29;20213;-69
2023/03/20 06:51:17;;;;;;;86.03;81.70;;;10.80;99.90;;;;;;4915604;29;20820;-69
2023/03/20 06:53:43;;;;;;;48.20;45.77;;;10.90;99.90;;;;;;4918344;29;20249;-69
2023/03/20 06:56:10;;;;;;;18.90;17.93;;;10.90;99.90;;;;;;4917535;29;20194;-69
2023/03/20 06:58:36;;;;;;;7.13;6.73;;;11.10;99.90;;;;;;4880558;29;20199;-70
2023/03/20 07:01:09;;;;;;;8.20;7.40;;;11.20;99.90;;;;;;4881125;29;20594;-68
2023/03/20 07:03:35;;;;;;;9.03;8.43;;;11.30;99.90;;;;;;4881075;29;20213;-68
2023/03/20 07:06:01;;;;;;;12.97;12.33;;;11.40;99.90;;;;;;4881044;29;20559;-68
2023/03/20 07:08:27;;;;;;;17.07;16.27;;;11.50;99.90;;;;;;4880402;29;20610;-68
2023/03/20 07:10:53;;;;;;;22.60;21.57;;;11.60;99.90;;;;;;4880874;29;20184;-68
2023/03/20 07:13:19;;;;;;;29.93;28.50;;;11.60;99.90;;;;;;4881145;29;20718;-68
2023/03/20 07:15:45;;;;;;;27.23;25.93;;;11.70;99.90;;;;;;4880498;29;20189;-68
2023/03/20 07:18:11;;;;;;;26.47;25.23;;;11.80;99.90;;;;;;4880813;29;20648;-67
2023/03/20 07:20:36;;;;;;;19.63;18.67;;;11.80;99.90;;;;;;4880248;29;20215;-67
2023/03/20 07:23:02;;;;;;;15.87;14.83;;;11.90;99.90;;;;;;4880686;29;20218;-67
2023/03/20 07:25:28;;;;;;;7.10;6.70;;;12.10;99.90;;;;;;4880580;29;20184;-67
2023/03/20 07:27:54;;;;;;;7.10;6.60;;;12.20;99.90;;;;;;4880611;29;20641;-67
2023/03/20 07:30:20;;;;;;;5.33;5.03;;;12.40;99.90;;;;;;4879902;29;20195;-67
2023/03/20 07:32:47;;;;;;;5.77;5.47;;;12.80;99.90;;;;;;4880370;29;20693;-67
2023/03/20 07:35:12;;;;;;;9.67;8.97;;;13.00;99.90;;;;;;4880326;29;20195;-67
2023/03/20 07:37:38;;;;;;;9.23;8.83;;;12.90;99.90;;;;;;4880196;29;20192;-67
2023/03/20 07:40:04;;;;;;;10.60;10.10;;;12.70;99.90;;;;;;4879916;29;20208;-67
2023/03/20 07:42:30;;;;;;;11.97;11.17;;;12.60;99.90;;;;;;4880151;29;20198;-68
2023/03/20 07:44:56;;;;;;;11.20;10.60;;;12.40;99.90;;;;;;4880127;29;20670;-67
2023/03/20 07:47:22;;;;;;;9.23;8.63;;;12.10;99.90;;;;;;4880394;29;20279;-67
2023/03/20 07:49:48;;;;;;;6.37;5.83;;;11.90;99.90;;;;;;4880066;29;20267;-67
2023/03/20 07:52:14;;;;;;;4.60;4.20;;;11.70;99.90;;;;;;4880867;29;20564;-68
2023/03/20 07:54:40;;;;;;;4.70;4.40;;;11.70;99.90;;;;;;4880451;29;20208;-68
2023/03/20 07:57:06;;;;;;;4.90;4.50;;;11.80;99.90;;;;;;4894325;29;20187;-68
2023/03/20 07:59:31;;;;;;;4.70;4.50;;;12.00;99.90;;;;;;4916720;29;20234;-68
2023/03/20 08:01:57;;;;;;;8.47;7.97;;;12.30;99.90;;;;;;4916422;29;20187;-68
2023/03/20 08:04:23;;;;;;;8.23;7.70;;;12.70;99.90;;;;;;4907889;29;20208;-68
2023/03/20 08:06:49;;;;;;;7.20;6.60;;;13.00;99.90;;;;;;4902439;29;20246;-69
2023/03/20 08:09:16;;;;;;;4.93;4.73;;;13.00;99.90;;;;;;4908176;29;20192;-68
2023/03/20 08:11:42;;;;;;;5.87;5.47;;;13.10;99.90;;;;;;4915216;29;20290;-68
2023/03/20 08:14:08;;;;;;;10.20;9.70;;;13.30;99.90;;;;;;4916069;29;20354;-68
2023/03/20 08:16:34;;;;;;;12.90;12.20;;;13.30;99.90;;;;;;4917397;29;20254;-68
2023/03/20 08:19:01;;;;;;;7.30;6.90;;;13.40;99.90;;;;;;4916039;29;20711;-68
2023/03/20 08:21:32;;;;;;;7.00;6.70;;;13.40;99.90;;;;;;4917287;29;20565;-68
2023/03/20 08:23:57;;;;;;;10.30;9.77;;;13.70;99.90;;;;;;4915962;29;20664;-68
2023/03/20 08:26:24;;;;;;;10.53;10.03;;;14.00;99.90;;;;;;4891616;29;20191;-68
2023/03/20 08:28:50;;;;;;;8.57;8.27;;;14.10;99.90;;;;;;4897073;29;20190;-68
2023/03/20 08:31:16;;;;;;;8.43;8.00;;;13.90;99.90;;;;;;4896987;29;20211;-68
2023/03/20 08:33:46;;;;;;;7.90;7.60;;;13.90;99.90;;;;;;4896897;29;20291;-68
2023/03/20 08:36:14;;;;;;;11.53;11.03;;;14.10;99.90;;;;;;4895672;29;20187;-68
2023/03/20 08:38:40;;;;;;;26.07;24.73;;;14.30;99.90;;;;;;4904904;29;20192;-68
2023/03/20 08:41:07;;;;;;;29.77;28.37;;;14.30;99.90;;;;;;4901412;29;20219;-67
2023/03/20 08:43:33;;;;;;;22.77;21.47;;;14.20;99.90;;;;;;4897025;29;20208;-67
2023/03/20 08:45:58;;;;;;;31.20;29.70;;;14.60;99.90;;;;;;4898014;29;20191;-68
2023/03/20 08:48:25;;;;;;;19.77;18.87;;;14.90;99.90;;;;;;4896776;29;20187;-68
2023/03/20 08:50:50;;;;;;;29.53;28.13;;;14.70;99.90;;;;;;4897958;29;20601;-68
2023/03/20 08:53:16;;;;;;;40.00;38.17;;;14.40;99.90;;;;;;4897888;29;20210;-68
2023/03/20 08:55:51;;;;;;;34.23;32.67;;;14.30;99.90;;;;;;4896596;29;20187;-67
2023/03/20 08:58:18;;;;;;;32.97;31.47;;;14.70;99.90;;;;;;4897708;29;20187;-68
2023/03/20 09:00:44;;;;;;;19.87;18.93;;;14.80;99.90;;;;;;4897782;29;20624;-67
2023/03/20 09:03:15;;;;;;;8.27;7.97;;;15.00;99.90;;;;;;4897742;29;20214;-67
2023/03/20 09:05:44;;;;;;;3.60;3.40;;;15.50;99.90;;;;;;4897729;29;20652;-68
2023/03/20 09:08:10;;;;;;;3.40;3.30;;;15.50;99.90;;;;;;4897782;29;20218;-68
2023/03/20 09:10:36;;;;;;;3.40;3.20;;;15.50;99.90;;;;;;4896137;29;20215;-68
2023/03/20 09:13:02;;;;;;;3.30;3.20;;;15.00;99.90;;;;;;4896187;29;20705;-68
2023/03/20 09:15:27;;;;;;;3.73;3.63;;;14.80;99.90;;;;;;4896601;29;20571;-69
2023/03/20 09:17:53;;;;;;;3.57;3.40;;;14.70;99.90;;;;;;4897434;29;20728;-68
2023/03/20 09:20:19;;;;;;;4.50;4.30;;;15.10;99.90;;;;;;4895781;29;20234;-68
2023/03/20 09:22:45;;;;;;;4.53;4.43;;;15.30;99.90;;;;;;4897139;29;20210;-68
2023/03/20 09:25:12;;;;;;;4.93;4.73;;;15.40;99.90;;;;;;4897337;29;20184;-68
2023/03/20 09:27:38;;;;;;;4.80;4.60;;;15.90;99.90;;;;;;4896016;29;20279;-68
2023/03/20 09:30:06;;;;;;;4.77;4.57;;;16.00;99.90;;;;;;4896920;29;20195;-68
2023/03/20 09:32:34;;;;;;;5.20;4.97;;;15.70;99.90;;;;;;4897100;29;20652;-69
2023/03/20 09:35:00;;;;;;;6.73;6.33;;;15.50;99.90;;;;;;4895923;29;20188;-69
2023/03/20 09:37:33;;;;;;;6.57;6.27;;;15.40;99.90;;;;;;5068797;28;20610;-69
2023/03/20 09:39:58;;;;;;;6.57;6.27;;;15.40;99.90;;;;;;5068377;28;20185;-68
2023/03/20 09:42:31;;;;;;;8.10;7.67;;;14.90;99.90;;;;;;5068578;28;20558;-68
2023/03/20 09:45:18;;;;;;;7.53;7.13;;;14.40;99.90;;;;;;5068682;28;20641;-70
2023/03/20 09:47:57;;;;;;;5.97;5.47;;;14.30;99.90;;;;;;5068621;28;20603;-65
2023/03/20 09:50:50;;;;;;;5.40;5.10;;;14.20;99.90;;;;;;5068428;28;20189;-65
2023/03/20 09:53:25;;;;;;;5.43;5.23;;;14.00;99.90;;;;;;5068439;28;20194;-65
2023/03/20 09:55:53;;;;;;;6.40;6.20;;;14.10;99.90;;;;;;5058325;28;20675;-68
2023/03/20 09:58:40;;;;;;;6.23;5.93;;;14.40;99.90;;;;;;5051362;28;20237;-66
2023/03/20 10:01:11;;;;;;;4.73;4.53;;;14.30;99.90;;;;;;5053698;28;20177;-66
2023/03/20 10:03:52;;;;;;;4.30;4.20;;;14.20;99.90;;;;;;5067852;28;20288;-65
2023/03/20 10:06:18;;;;;;;4.93;4.73;;;14.00;99.90;;;;;;5067942;28;20189;-66
2023/03/20 10:08:45;;;;;;;8.20;7.50;;;13.90;99.90;;;;;;5067549;28;20178;-65
2023/03/20 10:11:23;;;;;;;8.97;8.27;;;13.70;99.90;;;;;;5067444;28;20796;-65
2023/03/20 10:14:12;;;;;;;9.57;8.97;;;13.90;99.90;;;;;;5074136;22;20225;-65
2023/03/20 10:17:08;;;;;;;8.07;7.47;;;14.00;99.90;;;;;;5025653;28;20215;-65
2023/03/20 10:19:44;;;;;;;5.77;5.53;;;14.20;99.90;;;;;;5027128;28;20225;-65
2023/03/20 10:22:29;;;;;;;5.03;4.77;;;14.40;99.90;;;;;;5027678;28;20210;-65
2023/03/20 10:25:15;;;;;;;4.53;4.33;;;14.60;99.90;;;;;;5027054;28;20199;-63
2023/03/20 10:28:10;;;;;;;5.53;5.23;;;14.90;99.90;;;;;;5027533;28;20187;-65
2023/03/20 10:31:26;;;;;;;5.53;5.13;;;14.90;99.90;;;;;;5027219;28;20183;-65
2023/03/20 10:34:01;;;;;;;5.73;5.30;;;14.80;99.90;;;;;;5004501;28;20211;-65
2023/03/20 10:37:04;;;;;;;8.73;5.30;;;14.40;99.90;;;;;;5027248;28;20301;-65
2023/03/20 10:39:45;;;;;;;5.80;5.60;;;14.20;99.90;;;;;;5026656;28;20912;-65
2023/03/20 10:42:18;;;;;;;5.27;5.07;;;14.00;99.90;;;;;;5027298;28;20265;-65
2023/03/20 10:44:52;;;;;;;6.97;6.67;;;13.90;99.90;;;;;;5026186;28;20199;-64
2023/03/20 10:47:22;;;;;;;9.80;9.33;;;13.90;99.90;;;;;;5021551;28;20180;-64
2023/03/20 10:49:54;;;;;;;11.50;10.90;;;13.80;99.90;;;;;;5013944;28;20207;-65
2023/03/20 10:52:31;;;;;;;18.23;17.43;;;13.70;99.90;;;;;;5012885;28;20222;-64
2023/03/20 10:55:09;;;;;;;32.00;30.47;;;13.60;99.90;;;;;;5013177;28;20221;-64
2023/03/20 10:57:40;;;;;;;44.90;42.80;;;13.50;99.90;;;;;;5013841;28;20184;-65
2023/03/20 11:00:13;;;;;;;48.80;46.20;;;13.40;99.90;;;;;;5012120;28;20678;-65
2023/03/20 11:02:38;;;;;;;48.80;46.33;;;13.30;99.90;;;;;;5014314;28;20180;-65
2023/03/20 11:05:29;;;;;;;38.27;36.27;;;13.30;99.90;;;;;;5013527;28;20218;-66
2023/03/20 11:08:13;;;;;;;20.40;19.40;;;13.20;99.90;;;;;;5013514;28;20630;-66
2023/03/20 11:10:41;;;;;;;8.10;7.67;;;13.30;99.90;;;;;;5012543;28;20274;-66
2023/03/20 11:13:18;;;;;;;7.17;6.67;;;13.30;99.90;;;;;;5012428;28;20615;-67
2023/03/20 11:15:44;;;;;;;7.00;6.67;;;13.50;99.90;;;;;;5012145;28;20202;-67
2023/03/20 11:18:14;;;;;;;10.20;9.33;;;13.60;99.90;;;;;;5013398;28;20267;-67
2023/03/20 11:20:51;;;;;;;17.10;16.00;;;13.70;99.90;;;;;;5010834;28;20183;-67
2023/03/20 11:23:23;;;;;;;31.97;30.43;;;13.90;99.90;;;;;;5013289;28;20265;-67
2023/03/20 11:25:58;;;;;;;36.77;34.90;;;14.00;99.90;;;;;;5013207;28;20184;-66
2023/03/20 11:28:34;;;;;;;44.90;42.73;;;14.10;99.90;;;;;;5012908;28;20237;-67
2023/03/20 11:31:17;;;;;;;43.30;40.97;;;14.20;99.90;;;;;;5013122;28;20223;-68
2023/03/20 11:33:49;;;;;;;39.60;37.37;;;14.20;99.90;;;;;;5012996;28;20222;-67
2023/03/20 11:36:28;;;;;;;25.57;24.33;;;14.30;99.90;;;;;;5012967;28;20218;-68
2023/03/20 11:39:20;;;;;;;13.17;12.57;;;14.40;99.90;;;;;;5011609;28;20188;-67
2023/03/20 11:41:52;;;;;;;8.47;7.97;;;14.50;99.90;;;;;;5011359;28;20726;-68
2023/03/20 11:44:30;;;;;;;6.90;6.50;;;14.50;99.90;;;;;;5011889;28;20195;-66
2023/03/20 11:47:21;;;;;;;6.87;6.57;;;14.50;99.90;;;;;;5013112;28;20274;-67
2023/03/20 11:49:57;;;;;;;7.37;6.97;;;14.40;99.90;;;;;;5010862;28;20234;-68
2023/03/20 11:52:31;;;;;;;8.90;8.30;;;14.30;99.90;;;;;;5012916;28;20190;-66
2023/03/20 11:55:00;;;;;;;15.87;15.13;;;14.00;99.90;;;;;;5012700;28;20203;-66
2023/03/20 11:57:31;;;;;;;16.20;15.50;;;13.80;99.90;;;;;;5012501;28;20234;-66
2023/03/20 12:00:00;;;;;;;21.00;20.03;;;13.80;99.90;;;;;;5011444;28;20194;-66
2023/03/20 12:02:26;;;;;;;25.17;23.93;;;13.80;99.90;;;;;;5011267;28;20222;-66
2023/03/20 12:04:52;;;;;;;34.60;32.80;;;13.80;99.90;;;;;;5012288;28;20210;-65
2023/03/20 12:07:36;;;;;;;44.20;41.70;;;13.70;99.90;;;;;;5012449;28;20183;-66
2023/03/20 12:10:06;;;;;;;47.13;44.37;;;13.80;99.90;;;;;;5010813;28;20186;-66
2023/03/20 12:12:54;;;;;;;47.00;44.30;;;13.70;99.90;;;;;;5012364;28;20229;-66
2023/03/20 12:15:30;;;;;;;45.90;43.47;;;13.90;99.90;;;;;;5012116;28;20226;-66
2023/03/20 12:18:00;;;;;;;41.23;39.10;;;13.80;99.90;;;;;;5012288;28;20550;-67
2023/03/20 12:20:56;;;;;;;36.20;34.20;;;13.90;99.90;;;;;;5010675;28;20186;-66
2023/03/20 12:23:29;;;;;;;42.30;40.10;;;14.20;99.90;;;;;;5005225;28;20213;-67
2023/03/20 12:26:11;;;;;;;41.90;39.67;;;14.20;99.90;;;;;;4993544;28;20195;-67
2023/03/20 12:28:45;;;;;;;39.90;37.77;;;14.20;99.90;;;;;;4999833;28;20179;-66
2023/03/20 12:31:14;;;;;;;32.40;30.53;;;14.30;99.90;;;;;;5011892;28;20669;-66
2023/03/20 12:34:03;;;;;;;11.30;10.43;;;14.50;99.90;;;;;;5011961;28;20261;-68
2023/03/20 12:36:33;;;;;;;8.90;8.37;;;14.60;99.90;;;;;;5011669;28;20221;-67
2023/03/20 12:39:02;;;;;;;10.13;9.40;;;14.40;99.90;;;;;;5011370;28;20180;-67
2023/03/20 12:41:43;;;;;;;8.40;7.80;;;14.50;99.90;;;;;;5012391;28;20267;-67
2023/03/20 12:44:28;;;;;;;8.67;7.87;;;14.60;99.90;;;;;;5010487;28;20195;-66
2023/03/20 12:47:11;;;;;;;8.30;7.60;;;14.80;99.90;;;;;;5011862;28;20577;-67
2023/03/20 12:50:12;;;;;;;8.33;7.40;;;14.70;99.90;;;;;;5011542;28;20186;-67
2023/03/20 12:52:47;;;;;;;9.10;8.40;;;14.80;99.90;;;;;;4976751;28;20219;-67
2023/03/20 12:55:30;;;;;;;11.20;10.17;;;14.90;99.90;;;;;;5011558;28;20261;-68
2023/03/20 12:58:05;;;;;;;11.27;10.37;;;14.90;99.90;;;;;;5011721;28;20257;-67
2023/03/20 13:00:31;;;;;;;11.33;10.53;;;15.10;99.90;;;;;;5013052;28;20183;-67
2023/03/20 13:03:21;;;;;;;12.77;11.83;;;15.40;99.90;;;;;;5024395;28;20248;-68
2023/03/20 13:05:51;;;;;;;11.33;10.60;;;15.40;99.90;;;;;;5012530;28;20195;-68
2023/03/20 13:08:49;;;;;;;11.67;10.53;;;15.10;99.90;;;;;;5009878;28;20567;-67
2023/03/20 13:11:46;;;;;;;12.43;11.50;;;15.00;99.90;;;;;;5010210;28;20237;-68
2023/03/20 13:14:35;;;;;;;10.97;10.27;;;15.20;99.90;;;;;;5011097;28;20297;-68
2023/03/20 13:17:11;;;;;;;9.57;8.87;;;15.70;99.90;;;;;;5011488;28;20211;-68
2023/03/20 13:20:15;;;;;;;7.97;7.37;;;16.20;99.90;;;;;;5011066;28;20215;-68
2023/03/20 13:23:02;;;;;;;7.27;6.67;;;16.90;99.90;;;;;;5010925;28;20183;-66
2023/03/20 13:25:55;;;;;;;8.30;7.67;;;16.90;99.90;;;;;;5011555;28;20319;-66
2023/03/20 13:28:59;;;;;;;8.73;8.07;;;18.10;99.90;;;;;;5011366;28;20186;-67
2023/03/20 13:31:32;;;;;;;12.07;11.17;;;19.20;99.90;;;;;;5010144;28;20183;-66
2023/03/20 13:34:06;;;;;;;13.53;12.43;;;19.40;99.90;;;;;;5011540;28;20277;-67
2023/03/20 13:36:37;;;;;;;13.03;12.23;;;18.20;99.90;;;;;;5011615;28;20211;-67
2023/03/20 13:39:19;;;;;;;13.20;12.40;;;17.40;99.90;;;;;;5011752;28;20183;-67
2023/03/20 13:41:47;;;;;;;19.73;18.23;;;16.80;99.90;;;;;;5012227;28;20241;-66
2023/03/20 13:44:18;;;;;;;30.30;23.80;;;16.20;99.90;;;;;;5011113;28;20196;-66
2023/03/20 13:47:13;;;;;;;13.80;12.53;;;15.80;99.90;;;;;;5011391;28;20836;-66
2023/03/20 13:49:53;;;;;;;12.37;11.10;;;15.50;99.90;;;;;;5005591;28;20215;-66
2023/03/20 13:52:21;;;;;;;8.60;8.00;;;15.40;99.90;;;;;;5011047;28;20274;-66
2023/03/20 13:55:14;;;;;;;9.10;8.50;;;15.40;99.90;;;;;;5011013;28;20623;-65
2023/03/20 13:58:11;;;;;;;7.57;7.07;;;15.40;99.90;;;;;;5011266;28;20183;-67
2023/03/20 14:00:48;;;;;;;8.40;7.53;;;15.20;99.90;;;;;;5010786;28;20176;-66
2023/03/20 14:03:33;;;;;;;7.60;6.87;;;15.10;99.90;;;;;;5011071;28;20187;-66
2023/03/20 14:05:59;;;;;;;7.00;6.33;;;15.20;99.90;;;;;;5011016;28;20195;-66
2023/03/20 14:08:35;;;;;;;7.53;6.93;;;15.40;99.90;;;;;;5010452;28;20545;-67
2023/03/20 14:11:19;;;;;;;8.17;7.57;;;16.20;99.90;;;;;;5010779;28;20183;-67
2023/03/20 14:13:49;;;;;;;8.50;8.00;;;17.20;99.90;;;;;;5010462;28;20219;-66
2023/03/20 14:16:18;;;;;;;11.40;10.60;;;17.90;99.90;;;;;;5009522;28;20565;-66
2023/03/20 14:18:49;;;;;;;12.80;11.80;;;18.50;99.90;;;;;;4990720;28;20219;-67
2023/03/20 14:21:22;;;;;;;11.23;10.53;;;18.40;99.90;;;;;;5000657;28;20240;-66
2023/03/20 14:23:56;;;;;;;12.13;11.43;;;18.00;99.90;;;;;;5036328;28;20222;-67
2023/03/20 14:26:41;;;;;;;14.27;13.33;;;17.30;99.90;;;;;;5033106;28;20186;-67
2023/03/20 14:29:10;;;;;;;12.50;11.80;;;16.70;99.90;;;;;;5032343;28;20237;-67
2023/03/20 14:31:37;;;;;;;15.27;14.30;;;16.30;99.90;;;;;;5034104;28;20269;-67
2023/03/20 14:34:16;;;;;;;14.37;13.57;;;15.90;99.90;;;;;;5032541;28;20226;-67
2023/03/20 14:37:02;;;;;;;15.03;14.03;;;15.90;99.90;;;;;;5034285;28;20219;-67
2023/03/20 14:39:39;;;;;;;15.67;14.73;;;15.90;99.90;;;;;;5033939;28;20185;-68
2023/03/20 14:42:11;;;;;;;14.60;13.70;;;15.50;99.90;;;;;;5034197;28;20179;-67
2023/03/20 14:44:49;;;;;;;10.20;9.50;;;15.50;99.90;;;;;;5033732;28;20202;-67
2023/03/20 14:47:41;;;;;;;11.20;8.13;;;15.40;99.90;;;;;;5034169;28;20601;-66
2023/03/20 14:50:14;;;;;;;7.67;6.97;;;15.20;99.90;;;;;;5033760;28;20290;-68
2023/03/20 14:52:52;;;;;;;6.93;6.30;;;14.90;99.90;;;;;;5034372;28;20573;-68
2023/03/20 14:55:21;;;;;;;6.67;6.20;;;14.80;99.90;;;;;;5033963;28;20207;-67
2023/03/20 14:57:47;;;;;;;6.97;6.37;;;14.70;99.90;;;;;;5034191;28;20729;-67
2023/03/20 15:00:21;;;;;;;6.40;5.90;;;14.70;99.90;;;;;;5033565;28;20183;-67
2023/03/20 15:02:52;;;;;;;8.23;7.57;;;14.60;99.90;;;;;;5033698;28;20332;-67
2023/03/20 15:05:31;;;;;;;9.73;8.83;;;14.50;99.90;;;;;;5032622;28;20203;-66
2023/03/20 15:08:03;;;;;;;14.50;13.30;;;14.50;99.90;;;;;;5033963;28;20321;-66
2023/03/20 15:10:29;;;;;;;29.07;27.23;;;14.40;99.90;;;;;;5033450;28;20176;-68
2023/03/20 15:12:56;;;;;;;34.60;32.67;;;14.40;99.90;;;;;;5032606;28;20190;-66
2023/03/20 15:15:26;;;;;;;23.23;21.83;;;14.40;99.90;;;;;;5033382;28;20230;-67
2023/03/20 15:17:51;;;;;;;14.20;13.20;;;14.50;99.90;;;;;;5033611;28;20179;-66
2023/03/20 15:20:28;;;;;;;12.97;12.17;;;14.60;99.90;;;;;;5033187;28;20647;-66
2023/03/20 15:22:57;;;;;;;9.23;8.53;;;14.70;99.90;;;;;;5033772;28;20182;-66
2023/03/20 15:25:29;;;;;;;8.13;7.53;;;14.80;99.90;;;;;;5033468;28;20210;-66
2023/03/20 15:27:55;;;;;;;6.93;6.43;;;14.90;99.90;;;;;;5033994;28;20179;-66
2023/03/20 15:30:22;;;;;;;7.87;7.10;;;15.00;99.90;;;;;;5031811;28;20271;-67
2023/03/20 15:32:51;;;;;;;7.30;6.33;;;15.00;99.90;;;;;;5033250;28;20176;-67
2023/03/20 15:35:20;;;;;;;9.20;6.70;;;15.10;99.90;;;;;;5032964;28;20206;-66
2023/03/20 15:37:47;;;;;;;7.20;6.60;;;15.40;99.90;;;;;;5033351;28;20203;-65
2023/03/20 15:40:22;;;;;;;7.67;7.00;;;15.50;99.90;;;;;;5032845;28;20171;-66
2023/03/20 15:42:53;;;;;;;7.33;6.83;;;15.40;99.90;;;;;;5051983;28;20550;-66
2023/03/20 15:45:27;;;;;;;8.73;7.60;;;15.40;99.90;;;;;;5037902;28;20226;-68
2023/03/20 15:48:00;;;;;;;8.10;7.60;;;15.40;99.90;;;;;;5033311;28;20175;-67
2023/03/20 15:50:26;;;;;;;7.73;7.20;;;15.30;99.90;;;;;;5032770;28;20174;-67
2023/03/20 15:52:51;;;;;;;10.27;9.23;;;15.20;99.90;;;;;;5032981;28;20309;-67
2023/03/20 15:55:21;;;;;;;7.53;6.93;;;15.20;99.90;;;;;;5032602;28;20721;-66
2023/03/20 15:57:49;;;;;;;19.67;17.73;;;15.10;99.90;;;;;;5032982;28;20194;-66
2023/03/20 16:00:30;;;;;;;7.97;7.33;;;15.00;99.90;;;;;;5032259;28;20661;-66
2023/03/20 16:02:59;;;;;;;7.00;6.50;;;15.00;99.90;;;;;;5033243;28;20542;-66
2023/03/20 16:05:28;;;;;;;7.07;6.57;;;14.90;99.90;;;;;;5032442;28;20670;-67
2023/03/20 16:07:54;;;;;;;6.40;5.80;;;14.70;99.90;;;;;;5032719;28;20183;-67
2023/03/20 16:10:36;;;;;;;7.33;6.93;;;14.60;99.90;;;;;;5032103;28;20191;-69
2023/03/20 16:13:03;;;;;;;11.07;10.37;;;14.40;99.90;;;;;;5031248;28;20222;-67
2023/03/20 16:15:31;;;;;;;14.33;13.53;;;14.40;99.90;;;;;;5052556;22;20606;-70
2023/03/20 16:18:02;;;;;;;19.50;18.40;;;14.40;99.90;;;;;;5033101;28;20189;-70
2023/03/20 16:20:35;;;;;;;25.17;23.73;;;14.30;99.90;;;;;;5035378;28;20179;-70
2023/03/20 16:23:05;;;;;;;38.60;36.07;;;14.30;99.90;;;;;;5034643;28;20187;-70
2023/03/20 16:25:32;;;;;;;34.50;32.60;;;14.20;99.90;;;;;;5033035;28;20297;-70
2023/03/20 16:27:58;;;;;;;39.27;37.13;;;14.10;99.90;;;;;;5042925;28;20171;-70
2023/03/20 16:30:29;;;;;;;44.13;41.97;;;14.10;99.90;;;;;;5036149;28;20193;-70
2023/03/20 16:33:04;;;;;;;40.87;38.67;;;14.10;99.90;;;;;;5032219;28;20210;-69
2023/03/20 16:35:44;;;;;;;29.90;28.30;;;14.00;99.90;;;;;;5031909;28;20210;-69
2023/03/20 16:38:28;;;;;;;24.13;22.33;;;14.00;99.90;;;;;;5032213;28;20182;-70
2023/03/20 16:40:57;;;;;;;20.43;19.37;;;13.90;99.90;;;;;;5032186;28;20604;-70
2023/03/20 16:43:29;;;;;;;23.27;21.97;;;13.90;99.90;;;;;;5030593;28;20178;-70
2023/03/20 16:45:57;;;;;;;24.30;22.90;;;13.90;99.90;;;;;;5031390;28;20187;-69
2023/03/20 16:48:32;;;;;;;23.80;22.60;;;13.90;99.90;;;;;;5031560;28;20179;-70
2023/03/20 16:51:05;;;;;;;21.47;20.27;;;13.90;99.90;;;;;;5031950;28;20550;-70
2023/03/20 16:53:39;;;;;;;22.40;21.17;;;13.90;99.90;;;;;;5031364;28;20274;-70
2023/03/20 16:56:12;;;;;;;21.77;20.40;;;13.90;99.90;;;;;;5031601;28;20268;-69
2023/03/20 16:58:40;;;;;;;21.47;20.03;;;13.90;99.90;;;;;;5031260;28;20218;-69
2023/03/20 17:01:13;;;;;;;21.23;19.93;;;13.80;99.90;;;;;;5031724;28;20241;-70